sensor_id;sensor_type;location;lat;lon;timestamp;P1;durP1;ratioP1;P2;durP2;ratioP2
5890;SDS011;2971;52.420;7.080;2023-10-19T00:02:05;26.83;;;23.97;;
5890;SDS011;2971;52.420;7.080;2023-10-19T00:04:30;26.20;;;23.43;;
5890;SDS011;2971;52.420;7.080;2023-10-19T00:07:03;26.20;;;23.47;;
5890;SDS011;2971;52.420;7.080;2023-10-19T00:09:32;26.80;;;24.00;;
5890;SDS011;2971;52.420;7.080;2023-10-19T00:12:03;26.67;;;23.77;;
5890;SDS011;2971;52.420;7.080;2023-10-19T00:14:31;26.60;;;23.90;;
5890;SDS011;2971;52.420;7.080;2023-10-19T00:16:57;26.27;;;23.53;;
5890;SDS011;2971;52.420;7.080;2023-10-19T00:19:26;27.63;;;24.77;;
5890;SDS011;2971;52.420;7.080;2023-10-19T00:21:55;26.63;;;24.03;;
5890;SDS011;2971;52.420;7.080;2023-10-19T00:24:26;26.80;;;24.00;;
5890;SDS011;2971;52.420;7.080;2023-10-19T00:26:52;29.07;;;23.97;;
5890;SDS011;2971;52.420;7.080;2023-10-19T00:29:19;26.30;;;23.60;;
5890;SDS011;2971;52.420;7.080;2023-10-19T00:32:00;27.10;;;24.40;;
5890;SDS011;2971;52.420;7.080;2023-10-19T00:34:27;26.23;;;23.43;;
5890;SDS011;2971;52.420;7.080;2023-10-19T00:36:56;26.53;;;23.87;;
5890;SDS011;2971;52.420;7.080;2023-10-19T00:39:22;27.43;;;24.63;;
5890;SDS011;2971;52.420;7.080;2023-10-19T00:41:52;27.47;;;24.67;;
5890;SDS011;2971;52.420;7.080;2023-10-19T00:44:22;27.23;;;24.33;;
5890;SDS011;2971;52.420;7.080;2023-10-19T00:46:50;27.00;;;24.17;;
5890;SDS011;2971;52.420;7.080;2023-10-19T00:49:25;28.50;;;25.40;;
5890;SDS011;2971;52.420;7.080;2023-10-19T00:51:52;27.77;;;24.90;;
5890;SDS011;2971;52.420;7.080;2023-10-19T00:54:19;28.37;;;25.37;;
5890;SDS011;2971;52.420;7.080;2023-10-19T00:56:51;27.77;;;24.83;;
5890;SDS011;2971;52.420;7.080;2023-10-19T00:59:18;27.53;;;24.57;;
5890;SDS011;2971;52.420;7.080;2023-10-19T01:01:55;28.23;;;25.23;;
5890;SDS011;2971;52.420;7.080;2023-10-19T01:04:28;26.87;;;24.20;;
5890;SDS011;2971;52.420;7.080;2023-10-19T01:07:07;28.93;;;25.93;;
5890;SDS011;2971;52.420;7.080;2023-10-19T01:09:47;27.93;;;24.93;;
5890;SDS011;2971;52.420;7.080;2023-10-19T01:12:13;28.10;;;25.10;;
5890;SDS011;2971;52.420;7.080;2023-10-19T01:17:34;28.63;;;25.57;;
5890;SDS011;2971;52.420;7.080;2023-10-19T01:20:05;27.07;;;24.13;;
5890;SDS011;2971;52.420;7.080;2023-10-19T01:23:04;29.10;;;26.00;;
5890;SDS011;2971;52.420;7.080;2023-10-19T01:25:41;29.57;;;26.43;;
5890;SDS011;2971;52.420;7.080;2023-10-19T01:31:14;28.90;;;25.80;;
5890;SDS011;2971;52.420;7.080;2023-10-19T01:33:53;29.70;;;26.50;;
5890;SDS011;2971;52.420;7.080;2023-10-19T01:36:23;30.33;;;27.03;;
5890;SDS011;2971;52.420;7.080;2023-10-19T01:38:49;28.83;;;26.03;;
5890;SDS011;2971;52.420;7.080;2023-10-19T01:41:18;29.37;;;26.27;;
5890;SDS011;2971;52.420;7.080;2023-10-19T01:43:44;31.37;;;27.03;;
5890;SDS011;2971;52.420;7.080;2023-10-19T01:46:12;28.50;;;25.60;;
5890;SDS011;2971;52.420;7.080;2023-10-19T01:48:42;28.90;;;25.93;;
5890;SDS011;2971;52.420;7.080;2023-10-19T01:51:08;27.80;;;25.10;;
5890;SDS011;2971;52.420;7.080;2023-10-19T01:53:39;27.83;;;25.07;;
5890;SDS011;2971;52.420;7.080;2023-10-19T01:56:08;28.57;;;25.53;;
5890;SDS011;2971;52.420;7.080;2023-10-19T01:58:37;28.77;;;25.97;;
5890;SDS011;2971;52.420;7.080;2023-10-19T02:01:04;28.07;;;25.17;;
5890;SDS011;2971;52.420;7.080;2023-10-19T02:03:39;27.00;;;24.23;;
5890;SDS011;2971;52.420;7.080;2023-10-19T02:06:07;27.77;;;25.03;;
5890;SDS011;2971;52.420;7.080;2023-10-19T02:08:51;27.30;;;24.70;;
5890;SDS011;2971;52.420;7.080;2023-10-19T02:11:34;27.90;;;25.17;;
5890;SDS011;2971;52.420;7.080;2023-10-19T02:13:59;28.70;;;25.60;;
5890;SDS011;2971;52.420;7.080;2023-10-19T02:16:29;28.10;;;25.30;;
5890;SDS011;2971;52.420;7.080;2023-10-19T02:18:55;27.90;;;25.23;;
5890;SDS011;2971;52.420;7.080;2023-10-19T02:21:21;27.77;;;25.03;;
5890;SDS011;2971;52.420;7.080;2023-10-19T02:23:56;26.63;;;24.13;;
5890;SDS011;2971;52.420;7.080;2023-10-19T02:26:22;28.30;;;25.50;;
5890;SDS011;2971;52.420;7.080;2023-10-19T02:28:50;28.43;;;25.53;;
5890;SDS011;2971;52.420;7.080;2023-10-19T02:31:16;29.47;;;26.73;;
5890;SDS011;2971;52.420;7.080;2023-10-19T02:33:52;29.83;;;26.93;;
5890;SDS011;2971;52.420;7.080;2023-10-19T02:36:24;30.63;;;27.67;;
5890;SDS011;2971;52.420;7.080;2023-10-19T02:38:59;30.40;;;27.27;;
5890;SDS011;2971;52.420;7.080;2023-10-19T02:41:32;30.50;;;27.33;;
5890;SDS011;2971;52.420;7.080;2023-10-19T02:44:01;30.73;;;27.63;;
5890;SDS011;2971;52.420;7.080;2023-10-19T02:46:33;31.10;;;28.00;;
5890;SDS011;2971;52.420;7.080;2023-10-19T02:49:02;31.03;;;27.93;;
5890;SDS011;2971;52.420;7.080;2023-10-19T02:51:29;29.80;;;26.93;;
5890;SDS011;2971;52.420;7.080;2023-10-19T02:53:55;31.00;;;27.80;;
5890;SDS011;2971;52.420;7.080;2023-10-19T02:56:21;32.07;;;28.77;;
5890;SDS011;2971;52.420;7.080;2023-10-19T02:58:48;30.73;;;27.53;;
5890;SDS011;2971;52.420;7.080;2023-10-19T03:01:15;30.50;;;27.37;;
5890;SDS011;2971;52.420;7.080;2023-10-19T03:03:52;30.90;;;27.87;;
5890;SDS011;2971;52.420;7.080;2023-10-19T03:06:25;31.53;;;28.33;;
5890;SDS011;2971;52.420;7.080;2023-10-19T03:08:51;30.30;;;27.20;;
5890;SDS011;2971;52.420;7.080;2023-10-19T03:11:34;31.60;;;28.30;;
5890;SDS011;2971;52.420;7.080;2023-10-19T03:14:00;31.40;;;28.20;;
5890;SDS011;2971;52.420;7.080;2023-10-19T03:16:29;32.67;;;29.27;;
5890;SDS011;2971;52.420;7.080;2023-10-19T03:18:55;31.90;;;28.63;;
5890;SDS011;2971;52.420;7.080;2023-10-19T03:21:21;31.63;;;28.53;;
5890;SDS011;2971;52.420;7.080;2023-10-19T03:23:52;31.63;;;28.43;;
5890;SDS011;2971;52.420;7.080;2023-10-19T03:26:18;32.97;;;29.53;;
5890;SDS011;2971;52.420;7.080;2023-10-19T03:28:55;32.47;;;29.30;;
5890;SDS011;2971;52.420;7.080;2023-10-19T03:31:22;32.90;;;29.70;;
5890;SDS011;2971;52.420;7.080;2023-10-19T03:33:50;30.97;;;27.97;;
5890;SDS011;2971;52.420;7.080;2023-10-19T03:36:24;32.47;;;29.37;;
5890;SDS011;2971;52.420;7.080;2023-10-19T03:38:50;33.47;;;29.97;;
5890;SDS011;2971;52.420;7.080;2023-10-19T03:41:17;32.40;;;29.30;;
5890;SDS011;2971;52.420;7.080;2023-10-19T03:43:47;33.93;;;30.53;;
5890;SDS011;2971;52.420;7.080;2023-10-19T03:46:13;33.90;;;30.50;;
5890;SDS011;2971;52.420;7.080;2023-10-19T03:48:54;35.33;;;31.77;;
5890;SDS011;2971;52.420;7.080;2023-10-19T03:51:24;33.77;;;30.47;;
5890;SDS011;2971;52.420;7.080;2023-10-19T03:53:52;34.23;;;30.73;;
5890;SDS011;2971;52.420;7.080;2023-10-19T03:56:26;34.40;;;30.90;;
5890;SDS011;2971;52.420;7.080;2023-10-19T03:58:51;33.77;;;30.30;;
5890;SDS011;2971;52.420;7.080;2023-10-19T04:01:17;35.53;;;31.97;;
5890;SDS011;2971;52.420;7.080;2023-10-19T04:03:44;35.90;;;32.33;;
5890;SDS011;2971;52.420;7.080;2023-10-19T04:06:10;35.47;;;31.87;;
5890;SDS011;2971;52.420;7.080;2023-10-19T04:08:39;34.17;;;30.87;;
5890;SDS011;2971;52.420;7.080;2023-10-19T04:11:06;33.80;;;30.60;;
5890;SDS011;2971;52.420;7.080;2023-10-19T04:13:36;35.30;;;31.87;;
5890;SDS011;2971;52.420;7.080;2023-10-19T04:16:03;35.37;;;31.83;;
5890;SDS011;2971;52.420;7.080;2023-10-19T04:18:28;34.57;;;31.20;;
5890;SDS011;2971;52.420;7.080;2023-10-19T04:20:54;34.30;;;31.00;;
5890;SDS011;2971;52.420;7.080;2023-10-19T04:23:23;34.20;;;30.70;;
5890;SDS011;2971;52.420;7.080;2023-10-19T04:25:53;33.80;;;30.53;;
5890;SDS011;2971;52.420;7.080;2023-10-19T04:28:21;32.97;;;29.80;;
5890;SDS011;2971;52.420;7.080;2023-10-19T04:30:55;35.83;;;32.13;;
5890;SDS011;2971;52.420;7.080;2023-10-19T04:33:31;35.13;;;31.53;;
5890;SDS011;2971;52.420;7.080;2023-10-19T04:35:57;35.97;;;32.37;;
5890;SDS011;2971;52.420;7.080;2023-10-19T04:38:25;35.30;;;31.93;;
5890;SDS011;2971;52.420;7.080;2023-10-19T04:40:51;33.90;;;30.70;;
5890;SDS011;2971;52.420;7.080;2023-10-19T04:43:16;33.60;;;30.40;;
5890;SDS011;2971;52.420;7.080;2023-10-19T04:45:42;35.50;;;32.00;;
5890;SDS011;2971;52.420;7.080;2023-10-19T04:48:09;33.50;;;30.23;;
5890;SDS011;2971;52.420;7.080;2023-10-19T04:50:35;34.33;;;30.97;;
5890;SDS011;2971;52.420;7.080;2023-10-19T04:53:00;35.53;;;31.93;;
5890;SDS011;2971;52.420;7.080;2023-10-19T04:55:25;35.07;;;31.67;;
5890;SDS011;2971;52.420;7.080;2023-10-19T04:57:52;33.90;;;30.60;;
5890;SDS011;2971;52.420;7.080;2023-10-19T05:00:18;35.13;;;31.73;;
5890;SDS011;2971;52.420;7.080;2023-10-19T05:02:45;34.23;;;30.93;;
5890;SDS011;2971;52.420;7.080;2023-10-19T05:05:11;35.67;;;32.17;;
5890;SDS011;2971;52.420;7.080;2023-10-19T05:07:38;35.73;;;32.23;;
5890;SDS011;2971;52.420;7.080;2023-10-19T05:10:04;35.73;;;32.03;;
5890;SDS011;2971;52.420;7.080;2023-10-19T05:12:30;36.37;;;32.73;;
5890;SDS011;2971;52.420;7.080;2023-10-19T05:14:55;35.80;;;32.37;;
5890;SDS011;2971;52.420;7.080;2023-10-19T05:17:21;34.97;;;31.53;;
5890;SDS011;2971;52.420;7.080;2023-10-19T05:19:48;36.50;;;32.70;;
5890;SDS011;2971;52.420;7.080;2023-10-19T05:22:14;34.27;;;31.07;;
5890;SDS011;2971;52.420;7.080;2023-10-19T05:24:40;35.67;;;32.03;;
5890;SDS011;2971;52.420;7.080;2023-10-19T05:27:05;35.60;;;31.87;;
5890;SDS011;2971;52.420;7.080;2023-10-19T05:29:31;36.87;;;33.20;;
5890;SDS011;2971;52.420;7.080;2023-10-19T05:32:01;37.87;;;33.73;;
5890;SDS011;2971;52.420;7.080;2023-10-19T05:34:28;39.87;;;35.60;;
5890;SDS011;2971;52.420;7.080;2023-10-19T05:36:54;36.93;;;33.33;;
5890;SDS011;2971;52.420;7.080;2023-10-19T05:39:23;38.50;;;34.60;;
5890;SDS011;2971;52.420;7.080;2023-10-19T05:41:53;43.83;;;38.83;;
5890;SDS011;2971;52.420;7.080;2023-10-19T05:44:19;43.37;;;37.73;;
5890;SDS011;2971;52.420;7.080;2023-10-19T05:46:44;47.03;;;41.70;;
5890;SDS011;2971;52.420;7.080;2023-10-19T05:49:11;43.20;;;38.53;;
5890;SDS011;2971;52.420;7.080;2023-10-19T05:51:37;40.70;;;36.70;;
5890;SDS011;2971;52.420;7.080;2023-10-19T05:54:03;40.13;;;36.10;;
5890;SDS011;2971;52.420;7.080;2023-10-19T05:56:29;39.80;;;35.73;;
5890;SDS011;2971;52.420;7.080;2023-10-19T05:58:59;43.57;;;37.77;;
5890;SDS011;2971;52.420;7.080;2023-10-19T06:01:26;42.10;;;37.37;;
5890;SDS011;2971;52.420;7.080;2023-10-19T06:03:51;40.63;;;36.33;;
5890;SDS011;2971;52.420;7.080;2023-10-19T06:06:17;42.90;;;38.13;;
5890;SDS011;2971;52.420;7.080;2023-10-19T06:08:44;40.87;;;36.87;;
5890;SDS011;2971;52.420;7.080;2023-10-19T06:11:10;44.73;;;40.10;;
5890;SDS011;2971;52.420;7.080;2023-10-19T06:13:35;43.67;;;39.30;;
5890;SDS011;2971;52.420;7.080;2023-10-19T06:16:00;42.27;;;38.17;;
5890;SDS011;2971;52.420;7.080;2023-10-19T06:18:26;42.77;;;38.47;;
5890;SDS011;2971;52.420;7.080;2023-10-19T06:20:51;43.83;;;39.43;;
5890;SDS011;2971;52.420;7.080;2023-10-19T06:23:20;44.87;;;40.20;;
5890;SDS011;2971;52.420;7.080;2023-10-19T06:25:45;44.20;;;39.60;;
5890;SDS011;2971;52.420;7.080;2023-10-19T06:28:12;45.90;;;39.67;;
5890;SDS011;2971;52.420;7.080;2023-10-19T06:30:37;43.10;;;38.47;;
5890;SDS011;2971;52.420;7.080;2023-10-19T06:33:03;44.00;;;39.40;;
5890;SDS011;2971;52.420;7.080;2023-10-19T06:35:32;44.27;;;39.67;;
5890;SDS011;2971;52.420;7.080;2023-10-19T06:37:59;44.27;;;39.57;;
5890;SDS011;2971;52.420;7.080;2023-10-19T06:40:25;43.03;;;38.70;;
5890;SDS011;2971;52.420;7.080;2023-10-19T06:42:56;44.67;;;40.03;;
5890;SDS011;2971;52.420;7.080;2023-10-19T06:45:23;46.70;;;41.80;;
5890;SDS011;2971;52.420;7.080;2023-10-19T06:47:50;41.90;;;37.70;;
5890;SDS011;2971;52.420;7.080;2023-10-19T06:50:17;45.57;;;40.83;;
5890;SDS011;2971;52.420;7.080;2023-10-19T06:52:45;43.60;;;39.00;;
5890;SDS011;2971;52.420;7.080;2023-10-19T06:55:14;43.17;;;38.83;;
5890;SDS011;2971;52.420;7.080;2023-10-19T06:57:45;43.07;;;38.67;;
5890;SDS011;2971;52.420;7.080;2023-10-19T07:00:13;41.63;;;37.33;;
5890;SDS011;2971;52.420;7.080;2023-10-19T07:02:41;39.90;;;35.83;;
5890;SDS011;2971;52.420;7.080;2023-10-19T07:05:08;42.23;;;37.83;;
5890;SDS011;2971;52.420;7.080;2023-10-19T07:07:45;43.97;;;39.43;;
5890;SDS011;2971;52.420;7.080;2023-10-19T07:10:11;42.63;;;38.23;;
5890;SDS011;2971;52.420;7.080;2023-10-19T07:12:38;40.43;;;36.23;;
5890;SDS011;2971;52.420;7.080;2023-10-19T07:15:08;41.30;;;37.00;;
5890;SDS011;2971;52.420;7.080;2023-10-19T07:17:38;41.60;;;37.40;;
5890;SDS011;2971;52.420;7.080;2023-10-19T07:20:08;39.80;;;35.80;;
5890;SDS011;2971;52.420;7.080;2023-10-19T07:22:42;41.10;;;36.93;;
5890;SDS011;2971;52.420;7.080;2023-10-19T07:25:07;40.23;;;36.13;;
5890;SDS011;2971;52.420;7.080;2023-10-19T07:27:34;40.73;;;36.63;;
5890;SDS011;2971;52.420;7.080;2023-10-19T07:30:00;42.20;;;38.00;;
5890;SDS011;2971;52.420;7.080;2023-10-19T07:32:26;41.83;;;37.67;;
5890;SDS011;2971;52.420;7.080;2023-10-19T07:34:53;40.10;;;36.00;;
5890;SDS011;2971;52.420;7.080;2023-10-19T07:37:19;37.27;;;33.57;;
5890;SDS011;2971;52.420;7.080;2023-10-19T07:39:46;37.00;;;33.50;;
5890;SDS011;2971;52.420;7.080;2023-10-19T07:42:12;38.07;;;34.27;;
5890;SDS011;2971;52.420;7.080;2023-10-19T07:44:38;36.60;;;32.90;;
5890;SDS011;2971;52.420;7.080;2023-10-19T07:47:03;38.73;;;34.67;;
5890;SDS011;2971;52.420;7.080;2023-10-19T07:49:29;36.90;;;33.30;;
5890;SDS011;2971;52.420;7.080;2023-10-19T07:51:54;35.63;;;32.13;;
5890;SDS011;2971;52.420;7.080;2023-10-19T07:54:20;34.77;;;31.27;;
5890;SDS011;2971;52.420;7.080;2023-10-19T07:56:45;34.50;;;31.07;;
5890;SDS011;2971;52.420;7.080;2023-10-19T07:59:11;34.23;;;31.13;;
5890;SDS011;2971;52.420;7.080;2023-10-19T08:01:38;35.73;;;32.03;;
5890;SDS011;2971;52.420;7.080;2023-10-19T08:04:04;32.77;;;29.67;;
5890;SDS011;2971;52.420;7.080;2023-10-19T08:06:30;33.10;;;29.93;;
5890;SDS011;2971;52.420;7.080;2023-10-19T08:08:56;34.07;;;30.73;;
5890;SDS011;2971;52.420;7.080;2023-10-19T08:11:22;34.23;;;30.70;;
5890;SDS011;2971;52.420;7.080;2023-10-19T08:13:48;32.40;;;29.30;;
5890;SDS011;2971;52.420;7.080;2023-10-19T08:16:14;32.60;;;29.30;;
5890;SDS011;2971;52.420;7.080;2023-10-19T08:18:41;33.27;;;29.87;;
5890;SDS011;2971;52.420;7.080;2023-10-19T08:21:07;31.60;;;28.53;;
5890;SDS011;2971;52.420;7.080;2023-10-19T08:23:32;31.50;;;28.30;;
5890;SDS011;2971;52.420;7.080;2023-10-19T08:25:58;29.87;;;26.90;;
5890;SDS011;2971;52.420;7.080;2023-10-19T08:28:24;31.00;;;27.93;;
5890;SDS011;2971;52.420;7.080;2023-10-19T08:30:50;31.17;;;28.17;;
5890;SDS011;2971;52.420;7.080;2023-10-19T08:33:24;29.83;;;26.87;;
5890;SDS011;2971;52.420;7.080;2023-10-19T08:35:54;31.77;;;28.87;;
5890;SDS011;2971;52.420;7.080;2023-10-19T08:38:19;29.73;;;26.97;;
5890;SDS011;2971;52.420;7.080;2023-10-19T08:40:45;31.63;;;28.63;;
5890;SDS011;2971;52.420;7.080;2023-10-19T08:43:12;29.97;;;27.03;;
5890;SDS011;2971;52.420;7.080;2023-10-19T08:45:43;26.93;;;24.20;;
5890;SDS011;2971;52.420;7.080;2023-10-19T08:48:08;27.23;;;24.57;;
5890;SDS011;2971;52.420;7.080;2023-10-19T08:50:34;25.63;;;23.13;;
5890;SDS011;2971;52.420;7.080;2023-10-19T08:53:00;25.00;;;22.70;;
5890;SDS011;2971;52.420;7.080;2023-10-19T08:55:27;24.17;;;21.87;;
5890;SDS011;2971;52.420;7.080;2023-10-19T08:57:53;24.07;;;21.77;;
5890;SDS011;2971;52.420;7.080;2023-10-19T09:00:19;22.23;;;20.13;;
5890;SDS011;2971;52.420;7.080;2023-10-19T09:02:46;23.60;;;21.30;;
5890;SDS011;2971;52.420;7.080;2023-10-19T09:05:11;22.63;;;20.43;;
5890;SDS011;2971;52.420;7.080;2023-10-19T09:07:57;21.30;;;19.10;;
5890;SDS011;2971;52.420;7.080;2023-10-19T09:10:25;21.93;;;19.90;;
5890;SDS011;2971;52.420;7.080;2023-10-19T09:15:33;21.90;;;19.67;;
5890;SDS011;2971;52.420;7.080;2023-10-19T09:18:03;20.20;;;18.40;;
5890;SDS011;2971;52.420;7.080;2023-10-19T09:20:40;19.57;;;17.73;;
5890;SDS011;2971;52.420;7.080;2023-10-19T09:23:07;18.47;;;16.53;;
5890;SDS011;2971;52.420;7.080;2023-10-19T09:25:33;19.97;;;17.87;;
5890;SDS011;2971;52.420;7.080;2023-10-19T09:28:00;19.10;;;17.20;;
5890;SDS011;2971;52.420;7.080;2023-10-19T09:30:28;20.53;;;18.00;;
5890;SDS011;2971;52.420;7.080;2023-10-19T09:32:56;22.43;;;19.07;;
5890;SDS011;2971;52.420;7.080;2023-10-19T09:35:21;19.03;;;17.13;;
5890;SDS011;2971;52.420;7.080;2023-10-19T09:37:48;18.70;;;16.93;;
5890;SDS011;2971;52.420;7.080;2023-10-19T09:40:14;19.10;;;17.10;;
5890;SDS011;2971;52.420;7.080;2023-10-19T09:42:43;17.23;;;15.57;;
5890;SDS011;2971;52.420;7.080;2023-10-19T09:45:13;17.73;;;15.93;;
5890;SDS011;2971;52.420;7.080;2023-10-19T09:47:44;18.07;;;16.27;;
5890;SDS011;2971;52.420;7.080;2023-10-19T09:50:15;17.93;;;16.17;;
5890;SDS011;2971;52.420;7.080;2023-10-19T09:52:40;17.23;;;15.63;;
5890;SDS011;2971;52.420;7.080;2023-10-19T09:55:08;17.57;;;15.20;;
5890;SDS011;2971;52.420;7.080;2023-10-19T09:57:48;16.57;;;14.90;;
5890;SDS011;2971;52.420;7.080;2023-10-19T10:00:17;17.00;;;15.30;;
5890;SDS011;2971;52.420;7.080;2023-10-19T10:02:48;17.13;;;15.43;;
5890;SDS011;2971;52.420;7.080;2023-10-19T10:10:41;20.33;;;18.23;;
5890;SDS011;2971;52.420;7.080;2023-10-19T10:15:57;19.27;;;17.43;;
5890;SDS011;2971;52.420;7.080;2023-10-19T10:18:30;19.97;;;16.40;;
5890;SDS011;2971;52.420;7.080;2023-10-19T10:23:59;17.93;;;16.03;;
5890;SDS011;2971;52.420;7.080;2023-10-19T10:26:26;17.37;;;15.77;;
5890;SDS011;2971;52.420;7.080;2023-10-19T10:31:48;18.67;;;16.50;;
5890;SDS011;2971;52.420;7.080;2023-10-19T10:39:27;18.07;;;15.40;;
5890;SDS011;2971;52.420;7.080;2023-10-19T10:42:00;18.07;;;15.97;;
5890;SDS011;2971;52.420;7.080;2023-10-19T10:47:19;19.00;;;17.00;;
5890;SDS011;2971;52.420;7.080;2023-10-19T10:49:53;18.40;;;16.40;;
5890;SDS011;2971;52.420;7.080;2023-10-19T10:54:59;19.10;;;17.03;;
5890;SDS011;2971;52.420;7.080;2023-10-19T10:57:33;21.53;;;19.43;;
5890;SDS011;2971;52.420;7.080;2023-10-19T11:00:03;20.10;;;18.07;;
5890;SDS011;2971;52.420;7.080;2023-10-19T11:02:36;22.27;;;19.70;;
5890;SDS011;2971;52.420;7.080;2023-10-19T11:05:07;20.27;;;18.30;;
5890;SDS011;2971;52.420;7.080;2023-10-19T11:07:37;18.23;;;16.53;;
5890;SDS011;2971;52.420;7.080;2023-10-19T11:10:03;18.73;;;16.73;;
5890;SDS011;2971;52.420;7.080;2023-10-19T11:12:28;21.00;;;17.33;;
5890;SDS011;2971;52.420;7.080;2023-10-19T11:14:55;21.83;;;19.53;;
5890;SDS011;2971;52.420;7.080;2023-10-19T11:17:22;23.83;;;21.53;;
5890;SDS011;2971;52.420;7.080;2023-10-19T11:19:57;22.93;;;20.50;;
5890;SDS011;2971;52.420;7.080;2023-10-19T11:22:26;21.43;;;19.33;;
5890;SDS011;2971;52.420;7.080;2023-10-19T11:24:52;21.13;;;19.13;;
5890;SDS011;2971;52.420;7.080;2023-10-19T11:27:23;19.90;;;18.20;;
5890;SDS011;2971;52.420;7.080;2023-10-19T11:29:58;19.03;;;16.97;;
5890;SDS011;2971;52.420;7.080;2023-10-19T11:32:24;18.60;;;16.80;;
5890;SDS011;2971;52.420;7.080;2023-10-19T11:34:54;19.43;;;16.97;;
5890;SDS011;2971;52.420;7.080;2023-10-19T11:37:20;16.73;;;15.33;;
5890;SDS011;2971;52.420;7.080;2023-10-19T11:39:46;16.37;;;14.77;;
5890;SDS011;2971;52.420;7.080;2023-10-19T11:42:11;16.50;;;14.83;;
5890;SDS011;2971;52.420;7.080;2023-10-19T11:44:37;16.20;;;14.57;;
5890;SDS011;2971;52.420;7.080;2023-10-19T11:47:03;14.50;;;13.10;;
5890;SDS011;2971;52.420;7.080;2023-10-19T11:49:28;14.10;;;12.80;;
5890;SDS011;2971;52.420;7.080;2023-10-19T11:51:54;15.83;;;12.70;;
5890;SDS011;2971;52.420;7.080;2023-10-19T11:54:20;14.30;;;12.90;;
5890;SDS011;2971;52.420;7.080;2023-10-19T11:56:45;14.40;;;12.90;;
5890;SDS011;2971;52.420;7.080;2023-10-19T11:59:11;15.63;;;13.47;;
5890;SDS011;2971;52.420;7.080;2023-10-19T12:01:37;16.27;;;13.10;;
5890;SDS011;2971;52.420;7.080;2023-10-19T12:04:03;13.03;;;11.70;;
5890;SDS011;2971;52.420;7.080;2023-10-19T12:06:30;13.67;;;12.10;;
5890;SDS011;2971;52.420;7.080;2023-10-19T12:08:56;13.13;;;11.83;;
5890;SDS011;2971;52.420;7.080;2023-10-19T12:11:24;12.17;;;10.87;;
5890;SDS011;2971;52.420;7.080;2023-10-19T12:13:51;11.90;;;10.53;;
5890;SDS011;2971;52.420;7.080;2023-10-19T12:16:16;12.23;;;10.30;;
5890;SDS011;2971;52.420;7.080;2023-10-19T12:18:42;11.20;;;9.90;;
5890;SDS011;2971;52.420;7.080;2023-10-19T12:21:08;11.90;;;10.43;;
5890;SDS011;2971;52.420;7.080;2023-10-19T12:23:40;13.37;;;10.97;;
5890;SDS011;2971;52.420;7.080;2023-10-19T12:26:06;13.97;;;11.47;;
5890;SDS011;2971;52.420;7.080;2023-10-19T12:28:39;12.47;;;10.37;;
5890;SDS011;2971;52.420;7.080;2023-10-19T12:31:06;13.10;;;9.93;;
5890;SDS011;2971;52.420;7.080;2023-10-19T12:33:34;10.57;;;9.20;;
5890;SDS011;2971;52.420;7.080;2023-10-19T12:36:01;13.60;;;9.27;;
5890;SDS011;2971;52.420;7.080;2023-10-19T12:38:26;13.03;;;8.57;;
5890;SDS011;2971;52.420;7.080;2023-10-19T12:40:52;11.67;;;8.70;;
5890;SDS011;2971;52.420;7.080;2023-10-19T12:43:19;12.10;;;8.67;;
5890;SDS011;2971;52.420;7.080;2023-10-19T12:45:44;12.83;;;8.37;;
5890;SDS011;2971;52.420;7.080;2023-10-19T12:48:15;13.57;;;9.10;;
5890;SDS011;2971;52.420;7.080;2023-10-19T12:50:42;10.33;;;8.67;;
5890;SDS011;2971;52.420;7.080;2023-10-19T12:53:07;11.07;;;9.70;;
5890;SDS011;2971;52.420;7.080;2023-10-19T12:55:34;15.47;;;11.60;;
5890;SDS011;2971;52.420;7.080;2023-10-19T12:58:02;12.63;;;10.13;;
5890;SDS011;2971;52.420;7.080;2023-10-19T13:00:36;14.83;;;10.20;;
5890;SDS011;2971;52.420;7.080;2023-10-19T13:03:13;13.00;;;10.13;;
5890;SDS011;2971;52.420;7.080;2023-10-19T13:05:39;15.40;;;9.97;;
5890;SDS011;2971;52.420;7.080;2023-10-19T13:08:09;11.80;;;10.43;;
5890;SDS011;2971;52.420;7.080;2023-10-19T13:10:44;12.13;;;9.30;;
5890;SDS011;2971;52.420;7.080;2023-10-19T13:13:11;12.20;;;9.70;;
5890;SDS011;2971;52.420;7.080;2023-10-19T13:15:37;12.43;;;9.33;;
5890;SDS011;2971;52.420;7.080;2023-10-19T13:18:05;13.73;;;10.17;;
5890;SDS011;2971;52.420;7.080;2023-10-19T13:20:36;13.87;;;11.17;;
5890;SDS011;2971;52.420;7.080;2023-10-19T13:23:03;16.03;;;11.33;;
5890;SDS011;2971;52.420;7.080;2023-10-19T13:25:32;15.50;;;12.47;;
5890;SDS011;2971;52.420;7.080;2023-10-19T13:28:27;13.47;;;12.03;;
5890;SDS011;2971;52.420;7.080;2023-10-19T13:30:53;13.73;;;12.33;;
5890;SDS011;2971;52.420;7.080;2023-10-19T13:33:19;13.97;;;12.67;;
5890;SDS011;2971;52.420;7.080;2023-10-19T13:35:49;15.70;;;14.10;;
5890;SDS011;2971;52.420;7.080;2023-10-19T13:38:15;15.50;;;13.90;;
5890;SDS011;2971;52.420;7.080;2023-10-19T13:40:42;15.70;;;14.20;;
5890;SDS011;2971;52.420;7.080;2023-10-19T13:43:08;16.60;;;15.00;;
5890;SDS011;2971;52.420;7.080;2023-10-19T13:45:38;17.57;;;15.80;;
5890;SDS011;2971;52.420;7.080;2023-10-19T13:48:06;20.10;;;17.83;;
5890;SDS011;2971;52.420;7.080;2023-10-19T13:50:32;18.17;;;16.30;;
5890;SDS011;2971;52.420;7.080;2023-10-19T13:52:59;19.97;;;17.33;;
5890;SDS011;2971;52.420;7.080;2023-10-19T13:55:28;19.77;;;17.67;;
5890;SDS011;2971;52.420;7.080;2023-10-19T13:57:54;20.27;;;18.20;;
5890;SDS011;2971;52.420;7.080;2023-10-19T14:00:23;20.27;;;18.27;;
5890;SDS011;2971;52.420;7.080;2023-10-19T14:03:04;21.03;;;19.13;;
5890;SDS011;2971;52.420;7.080;2023-10-19T14:05:35;20.13;;;18.23;;
5890;SDS011;2971;52.420;7.080;2023-10-19T14:08:05;21.40;;;19.50;;
5890;SDS011;2971;52.420;7.080;2023-10-19T14:10:31;21.07;;;19.07;;
5890;SDS011;2971;52.420;7.080;2023-10-19T14:12:57;21.57;;;19.47;;
5890;SDS011;2971;52.420;7.080;2023-10-19T14:15:22;23.57;;;21.17;;
5890;SDS011;2971;52.420;7.080;2023-10-19T14:17:48;24.00;;;21.40;;
5890;SDS011;2971;52.420;7.080;2023-10-19T14:20:14;23.10;;;21.00;;
5890;SDS011;2971;52.420;7.080;2023-10-19T14:22:44;22.73;;;20.67;;
5890;SDS011;2971;52.420;7.080;2023-10-19T14:25:19;23.20;;;21.07;;
5890;SDS011;2971;52.420;7.080;2023-10-19T14:27:47;23.83;;;21.43;;
5890;SDS011;2971;52.420;7.080;2023-10-19T14:30:14;23.23;;;21.07;;
5890;SDS011;2971;52.420;7.080;2023-10-19T14:32:41;24.80;;;22.37;;
5890;SDS011;2971;52.420;7.080;2023-10-19T14:35:08;23.33;;;21.10;;
5890;SDS011;2971;52.420;7.080;2023-10-19T14:37:36;24.47;;;22.30;;
5890;SDS011;2971;52.420;7.080;2023-10-19T14:40:11;23.63;;;21.63;;
5890;SDS011;2971;52.420;7.080;2023-10-19T14:42:39;24.33;;;22.00;;
5890;SDS011;2971;52.420;7.080;2023-10-19T14:45:10;25.93;;;23.50;;
5890;SDS011;2971;52.420;7.080;2023-10-19T14:47:39;25.33;;;23.13;;
5890;SDS011;2971;52.420;7.080;2023-10-19T14:50:10;28.10;;;25.50;;
5890;SDS011;2971;52.420;7.080;2023-10-19T14:52:42;27.40;;;24.97;;
5890;SDS011;2971;52.420;7.080;2023-10-19T14:55:08;27.50;;;25.17;;
5890;SDS011;2971;52.420;7.080;2023-10-19T14:57:35;28.03;;;25.47;;
5890;SDS011;2971;52.420;7.080;2023-10-19T15:00:03;28.43;;;25.83;;
5890;SDS011;2971;52.420;7.080;2023-10-19T15:02:46;28.57;;;25.53;;
5890;SDS011;2971;52.420;7.080;2023-10-19T15:05:16;29.40;;;26.57;;
5890;SDS011;2971;52.420;7.080;2023-10-19T15:07:43;30.00;;;26.87;;
5890;SDS011;2971;52.420;7.080;2023-10-19T15:10:10;31.47;;;28.50;;
5890;SDS011;2971;52.420;7.080;2023-10-19T15:12:39;30.57;;;27.67;;
5890;SDS011;2971;52.420;7.080;2023-10-19T15:15:05;31.07;;;28.07;;
5890;SDS011;2971;52.420;7.080;2023-10-19T15:17:32;30.97;;;27.87;;
5890;SDS011;2971;52.420;7.080;2023-10-19T15:19:58;32.00;;;29.03;;
5890;SDS011;2971;52.420;7.080;2023-10-19T15:22:24;29.87;;;27.13;;
5890;SDS011;2971;52.420;7.080;2023-10-19T15:24:50;31.13;;;28.33;;
5890;SDS011;2971;52.420;7.080;2023-10-19T15:27:17;32.27;;;29.03;;
5890;SDS011;2971;52.420;7.080;2023-10-19T15:29:43;29.70;;;26.60;;